Startpagina
METAR-TAF:

METAR-TAF

Vliegvelden :

Sint Maarten, Nederlandse Antillen

Princess Juliana International Airport

breedte: 18-03N, lengte: 063-07W, hoogte: 4 m

Actueel weer

Dit bericht is 19 minuten geleden gemaakt, om 12:00 UTC
Wind 9 kt uit het oosten
Temperatuur 28°C
Vochtigheid 79%
Druk 1019 hPa
Zicht 10 km of meer
Weinig wolken op 1800 ft

METAR: TNCM 251200Z 08009KT 9999 FEW018 28/24 Q1019 A3009 NOSIG

Tijdstip: 08:19 (12:19 UTC)

Verwachting

Dit bericht is 35 minuten geleden gemaakt, om 11:44 UTC
Verwachting geldig van 25 om 12 UTC tot 26 om 12 UTC
Wind 9 kt uit het oosten
Zicht: 10 km
Weinig wolken op 2100 ft
Van 25 om 1300 UTC
Wind 12 kt uit het oosten
Zicht: 10 km
Verspreide wolken op 2000 ft
Van 25 om 2300 UTC
Wind 8 kt uit het oosten
Zicht: 10 km
Verspreide wolken op 1800 ft

TAF: TNCM 251144Z 2512/2612 08009KT P6SM FEW021 FM251300 09012KT P6SM SCT020 FM252300 09008KT P6SM SCT018

Waarnemingen en weersverwachtingen van meer dan 4000 vliegvelden (METAR en TAF).

De beschikbare stations zijn de gele en rode punten op de kaart.

Ga met uw muis naar het station om de naam te zien.

Klik dan om waarnemingen en weersverwachtingen te zien.

kaart wijzigen: klik op de groene knoppen met een zwart kruis om in te zoomen, op de groene knop met een streepje om uit te zoomen of op de groene pijlen voor aangrenzende kaarten.


METAR-TAF: